CFG6AW EDDB-EPKK
Flight info
| Callsign | CFG6AW |
|---|---|
| Flight time | 0h 55m |
| Altitude | 37000 |
| Route | ARSAP3Q/06R ARSAP DCT OLUMA DCT KULUV DCT NUDRO DCT MOFKE |
| Aircraft | A320/M-SDE3FGHIRWY/LB1 |
Departure
| Time | 2026-05-05 14:21 |
|---|---|
| Airport | Berlin Brandenburg Airport (EDDB) |
Arrival
| Time | 2026-05-05 15:16 |
|---|---|
| Airport | Kraków John Paul II International Airport (EPKK) |
| Time | Latitude | Longitude | Altitude | Speed | Heading |
|---|---|---|---|---|---|
| 2026-05-05 13:20 | 52.36285 | 13.50660 | 155 ft | 0 kts | 69° |
| 2026-05-05 14:06 | 52.36284 | 13.50655 | 154 ft | 2 kts | 69° |
| 2026-05-05 14:06 | 52.36278 | 13.50628 | 154 ft | 3 kts | 69° |
| 2026-05-05 14:07 | 52.36271 | 13.50601 | 153 ft | 2 kts | 69° |
| 2026-05-05 14:07 | 52.36265 | 13.50575 | 154 ft | 2 kts | 39° |
| 2026-05-05 14:07 | 52.36250 | 13.50561 | 153 ft | 3 kts | 48° |
| 2026-05-05 14:07 | 52.36236 | 13.50546 | 153 ft | 2 kts | 342° |
| 2026-05-05 14:08 | 52.36233 | 13.50547 | 153 ft | 0 kts | 326° |
| 2026-05-05 14:11 | 52.36232 | 13.50547 | 153 ft | 0 kts | 326° |
| 2026-05-05 14:12 | 52.36229 | 13.50550 | 153 ft | 0 kts | 307° |
| 2026-05-05 14:12 | 52.36248 | 13.50527 | 153 ft | 7 kts | 333° |
| 2026-05-05 14:13 | 52.36284 | 13.50483 | 152 ft | 6 kts | 307° |
| 2026-05-05 14:13 | 52.36306 | 13.50416 | 151 ft | 7 kts | 308° |
| 2026-05-05 14:13 | 52.36346 | 13.50382 | 151 ft | 6 kts | 338° |
| 2026-05-05 14:13 | 52.36379 | 13.50359 | 151 ft | 5 kts | 338° |
| 2026-05-05 14:14 | 52.36406 | 13.50342 | 151 ft | 4 kts | 339° |
| 2026-05-05 14:14 | 52.36426 | 13.50330 | 151 ft | 3 kts | 340° |
| 2026-05-05 14:14 | 52.36439 | 13.50322 | 151 ft | 2 kts | 340° |
| 2026-05-05 14:14 | 52.36482 | 13.50295 | 151 ft | 8 kts | 339° |
| 2026-05-05 14:15 | 52.36531 | 13.50264 | 151 ft | 7 kts | 339° |
| 2026-05-05 14:15 | 52.36571 | 13.50239 | 151 ft | 6 kts | 338° |
| 2026-05-05 14:15 | 52.36604 | 13.50218 | 151 ft | 5 kts | 338° |
| 2026-05-05 14:15 | 52.36630 | 13.50201 | 151 ft | 4 kts | 338° |
| 2026-05-05 14:16 | 52.36649 | 13.50189 | 151 ft | 3 kts | 339° |
| 2026-05-05 14:16 | 52.36694 | 13.50155 | 151 ft | 13 kts | 325° |
| 2026-05-05 14:16 | 52.36757 | 13.50044 | 149 ft | 13 kts | 323° |
| 2026-05-05 14:16 | 52.36772 | 13.49914 | 147 ft | 12 kts | 249° |
| 2026-05-05 14:17 | 52.36743 | 13.49795 | 148 ft | 10 kts | 248° |
| 2026-05-05 14:17 | 52.36719 | 13.49692 | 147 ft | 9 kts | 249° |
| 2026-05-05 14:17 | 52.36698 | 13.49604 | 148 ft | 8 kts | 248° |
| 2026-05-05 14:17 | 52.36692 | 13.49524 | 147 ft | 7 kts | 274° |
| 2026-05-05 14:18 | 52.36727 | 13.49479 | 147 ft | 6 kts | 334° |
| 2026-05-05 14:18 | 52.36754 | 13.49461 | 148 ft | 2 kts | 340° |
| 2026-05-05 14:18 | 52.36779 | 13.49447 | 148 ft | 9 kts | 340° |
| 2026-05-05 14:18 | 52.36836 | 13.49439 | 151 ft | 7 kts | 18° |
| 2026-05-05 14:19 | 52.36867 | 13.49473 | 152 ft | 0 kts | 38° |
| 2026-05-05 14:19 | 52.36897 | 13.49512 | 154 ft | 10 kts | 38° |
| 2026-05-05 14:19 | 52.36971 | 13.49610 | 157 ft | 18 kts | 41° |
| 2026-05-05 14:20 | 52.37064 | 13.49786 | 159 ft | 22 kts | 56° |
| 2026-05-05 14:20 | 52.37150 | 13.50115 | 159 ft | 56 kts | 69° |
| 2026-05-05 14:20 | 52.37384 | 13.51103 | 161 ft | 124 kts | 69° |
| 2026-05-05 14:20 | 52.37753 | 13.52643 | 243 ft | 161 kts | 69° |
| 2026-05-05 14:21 | 52.38138 | 13.54306 | 923 ft | 153 kts | 68° |
| 2026-05-05 14:21 | 52.38520 | 13.55986 | 1374 ft | 162 kts | 68° |
| 2026-05-05 14:21 | 52.38915 | 13.57791 | 1863 ft | 174 kts | 69° |
| 2026-05-05 14:21 | 52.39322 | 13.59725 | 2416 ft | 184 kts | 70° |
| 2026-05-05 14:22 | 52.39760 | 13.61764 | 2914 ft | 199 kts | 67° |
| 2026-05-05 14:22 | 52.40305 | 13.63981 | 3215 ft | 222 kts | 66° |
| 2026-05-05 14:22 | 52.40926 | 13.66446 | 3558 ft | 246 kts | 67° |
| 2026-05-05 14:22 | 52.41604 | 13.69163 | 4063 ft | 265 kts | 67° |
| 2026-05-05 14:23 | 52.42299 | 13.72018 | 4833 ft | 274 kts | 68° |
| 2026-05-05 14:23 | 52.42991 | 13.74911 | 5693 ft | 278 kts | 68° |
| 2026-05-05 14:23 | 52.43692 | 13.77880 | 6517 ft | 283 kts | 68° |
| 2026-05-05 14:23 | 52.44454 | 13.80915 | 7329 ft | 288 kts | 65° |
| 2026-05-05 14:24 | 52.45299 | 13.83921 | 8113 ft | 292 kts | 64° |
| 2026-05-05 14:24 | 52.46185 | 13.86956 | 8906 ft | 297 kts | 66° |
| 2026-05-05 14:24 | 52.46588 | 13.89111 | 9414 ft | 300 kts | 82° |
| 2026-05-05 14:24 | 52.46523 | 13.92528 | 10152 ft | 303 kts | 106° |
| 2026-05-05 14:25 | 52.45736 | 13.95822 | 10481 ft | 322 kts | 117° |
| 2026-05-05 14:25 | 52.44728 | 13.99245 | 10680 ft | 345 kts | 118° |
| 2026-05-05 14:25 | 52.43619 | 14.02885 | 10917 ft | 365 kts | 118° |
| 2026-05-05 14:25 | 52.42461 | 14.06647 | 11471 ft | 373 kts | 119° |
| 2026-05-05 14:26 | 52.41286 | 14.10476 | 12125 ft | 378 kts | 119° |
| 2026-05-05 14:26 | 52.40106 | 14.14345 | 12787 ft | 382 kts | 119° |
| 2026-05-05 14:26 | 52.38924 | 14.18254 | 13481 ft | 385 kts | 119° |
| 2026-05-05 14:26 | 52.37751 | 14.22162 | 14092 ft | 389 kts | 119° |
| 2026-05-05 14:27 | 52.36553 | 14.26150 | 14668 ft | 393 kts | 119° |
| 2026-05-05 14:27 | 52.35328 | 14.30228 | 15253 ft | 397 kts | 119° |
| 2026-05-05 14:27 | 52.34114 | 14.34247 | 15700 ft | 401 kts | 119° |
| 2026-05-05 14:27 | 52.32874 | 14.38335 | 15828 ft | 401 kts | 119° |
| 2026-05-05 14:28 | 52.31630 | 14.42427 | 15854 ft | 401 kts | 119° |
| 2026-05-05 14:28 | 52.30385 | 14.46512 | 15854 ft | 401 kts | 119° |
| 2026-05-05 14:28 | 52.29141 | 14.50595 | 15853 ft | 401 kts | 119° |
| 2026-05-05 14:28 | 52.27895 | 14.54677 | 15852 ft | 401 kts | 120° |
| 2026-05-05 14:29 | 52.26647 | 14.58755 | 15851 ft | 401 kts | 120° |
| 2026-05-05 14:29 | 52.25394 | 14.62837 | 15847 ft | 401 kts | 120° |
| 2026-05-05 14:29 | 52.24141 | 14.66900 | 15847 ft | 401 kts | 120° |
| 2026-05-05 14:29 | 52.22888 | 14.70964 | 15849 ft | 401 kts | 120° |
| 2026-05-05 14:30 | 52.21636 | 14.75025 | 15846 ft | 401 kts | 120° |
| 2026-05-05 14:30 | 52.20379 | 14.79088 | 15848 ft | 401 kts | 120° |
| 2026-05-05 14:30 | 52.19114 | 14.83144 | 15845 ft | 401 kts | 120° |
| 2026-05-05 14:30 | 52.17847 | 14.87181 | 15844 ft | 401 kts | 120° |
| 2026-05-05 14:31 | 52.16569 | 14.91242 | 16231 ft | 404 kts | 120° |
| 2026-05-05 14:31 | 52.15280 | 14.95330 | 16843 ft | 407 kts | 120° |
| 2026-05-05 14:31 | 52.13992 | 14.99409 | 17424 ft | 411 kts | 120° |
| 2026-05-05 14:31 | 52.12681 | 15.03567 | 17994 ft | 415 kts | 120° |
| 2026-05-05 14:32 | 52.11355 | 15.07778 | 18501 ft | 419 kts | 120° |
| 2026-05-05 14:32 | 52.10021 | 15.12017 | 19010 ft | 422 kts | 120° |
| 2026-05-05 14:32 | 52.08677 | 15.16283 | 19548 ft | 425 kts | 121° |
| 2026-05-05 14:32 | 52.07323 | 15.20571 | 20054 ft | 428 kts | 121° |
| 2026-05-05 14:33 | 52.05952 | 15.24893 | 20553 ft | 430 kts | 121° |
| 2026-05-05 14:33 | 52.04578 | 15.29213 | 21061 ft | 432 kts | 121° |
| 2026-05-05 14:33 | 52.03191 | 15.33562 | 21543 ft | 435 kts | 121° |
| 2026-05-05 14:33 | 52.01808 | 15.37888 | 21982 ft | 437 kts | 121° |
| 2026-05-05 14:34 | 52.00401 | 15.42284 | 22428 ft | 440 kts | 121° |
| 2026-05-05 14:34 | 51.98986 | 15.46701 | 22861 ft | 443 kts | 121° |
| 2026-05-05 14:34 | 51.97560 | 15.51150 | 23281 ft | 444 kts | 121° |
| 2026-05-05 14:34 | 51.96128 | 15.55606 | 23704 ft | 445 kts | 121° |
| 2026-05-05 14:35 | 51.94688 | 15.60072 | 24062 ft | 447 kts | 121° |
| 2026-05-05 14:35 | 51.93239 | 15.64557 | 24398 ft | 449 kts | 121° |
| 2026-05-05 14:35 | 51.91779 | 15.69062 | 24719 ft | 452 kts | 121° |
| 2026-05-05 14:35 | 51.90313 | 15.73582 | 25024 ft | 454 kts | 122° |
| 2026-05-05 14:36 | 51.88699 | 15.77898 | 25342 ft | 453 kts | 128° |
| 2026-05-05 14:36 | 51.86914 | 15.82126 | 25646 ft | 455 kts | 128° |
| 2026-05-05 14:36 | 51.85123 | 15.86358 | 25958 ft | 457 kts | 128° |
| 2026-05-05 14:36 | 51.83319 | 15.90613 | 26256 ft | 459 kts | 128° |
| 2026-05-05 14:37 | 51.81507 | 15.94885 | 26546 ft | 461 kts | 128° |
| 2026-05-05 14:37 | 51.79680 | 15.99176 | 26826 ft | 463 kts | 128° |
| 2026-05-05 14:37 | 51.77847 | 16.03468 | 27091 ft | 465 kts | 128° |
| 2026-05-05 14:37 | 51.76004 | 16.07778 | 27367 ft | 467 kts | 128° |
| 2026-05-05 14:38 | 51.74174 | 16.12056 | 27619 ft | 469 kts | 128° |
| 2026-05-05 14:38 | 51.72293 | 16.16454 | 27870 ft | 471 kts | 128° |
| 2026-05-05 14:38 | 51.70446 | 16.20761 | 28094 ft | 473 kts | 128° |
| 2026-05-05 14:38 | 51.68563 | 16.25139 | 28321 ft | 475 kts | 128° |
| 2026-05-05 14:39 | 51.66672 | 16.29526 | 28566 ft | 476 kts | 128° |
| 2026-05-05 14:39 | 51.64776 | 16.33913 | 28891 ft | 475 kts | 128° |
| 2026-05-05 14:39 | 51.62838 | 16.38227 | 29232 ft | 474 kts | 130° |
| 2026-05-05 14:39 | 51.60843 | 16.42450 | 29530 ft | 473 kts | 131° |
| 2026-05-05 14:40 | 51.58814 | 16.46598 | 29885 ft | 471 kts | 132° |
| 2026-05-05 14:40 | 51.56798 | 16.50660 | 30186 ft | 470 kts | 132° |
| 2026-05-05 14:40 | 51.54755 | 16.54771 | 30466 ft | 470 kts | 132° |
| 2026-05-05 14:40 | 51.52723 | 16.58887 | 30733 ft | 470 kts | 131° |
| 2026-05-05 14:41 | 51.50704 | 16.63011 | 30997 ft | 470 kts | 131° |
| 2026-05-05 14:41 | 51.48692 | 16.67152 | 31268 ft | 470 kts | 131° |
| 2026-05-05 14:41 | 51.46687 | 16.71297 | 31539 ft | 470 kts | 131° |
| 2026-05-05 14:41 | 51.44687 | 16.75434 | 31801 ft | 470 kts | 131° |
| 2026-05-05 14:42 | 51.42708 | 16.79519 | 32068 ft | 470 kts | 131° |
| 2026-05-05 14:42 | 51.40697 | 16.83651 | 32339 ft | 470 kts | 131° |
| 2026-05-05 14:42 | 51.38679 | 16.87777 | 32599 ft | 470 kts | 131° |
| 2026-05-05 14:42 | 51.36664 | 16.91879 | 32853 ft | 470 kts | 131° |
| 2026-05-05 14:43 | 51.34634 | 16.95996 | 33126 ft | 470 kts | 131° |
| 2026-05-05 14:43 | 51.32609 | 17.00101 | 33384 ft | 469 kts | 131° |
| 2026-05-05 14:43 | 51.30593 | 17.04184 | 33663 ft | 469 kts | 131° |
| 2026-05-05 14:43 | 51.28574 | 17.08276 | 33911 ft | 469 kts | 131° |
| 2026-05-05 14:44 | 51.26554 | 17.12368 | 34149 ft | 468 kts | 131° |
| 2026-05-05 14:44 | 51.24536 | 17.16449 | 34396 ft | 468 kts | 131° |
| 2026-05-05 14:44 | 51.22519 | 17.20516 | 34649 ft | 467 kts | 131° |
| 2026-05-05 14:44 | 51.20524 | 17.24526 | 34887 ft | 466 kts | 131° |
| 2026-05-05 14:45 | 51.18514 | 17.28560 | 35122 ft | 465 kts | 131° |
| 2026-05-05 14:45 | 51.16380 | 17.32417 | 35341 ft | 461 kts | 139° |
| 2026-05-05 14:45 | 51.13945 | 17.35712 | 35532 ft | 457 kts | 146° |
| 2026-05-05 14:45 | 51.11408 | 17.38777 | 35738 ft | 456 kts | 146° |
| 2026-05-05 14:46 | 51.08880 | 17.41830 | 35942 ft | 456 kts | 146° |
| 2026-05-05 14:46 | 51.06356 | 17.44874 | 36131 ft | 455 kts | 146° |
| 2026-05-05 14:46 | 51.03828 | 17.47924 | 36338 ft | 455 kts | 146° |
| 2026-05-05 14:46 | 51.01316 | 17.50959 | 36529 ft | 454 kts | 146° |
| 2026-05-05 14:47 | 50.98829 | 17.53963 | 36724 ft | 454 kts | 146° |
| 2026-05-05 14:47 | 50.96306 | 17.57006 | 36781 ft | 456 kts | 146° |
| 2026-05-05 14:47 | 50.91248 | 17.63089 | 36781 ft | 457 kts | 146° |
| 2026-05-05 14:48 | 50.86170 | 17.69174 | 36782 ft | 457 kts | 146° |
| 2026-05-05 14:48 | 50.81100 | 17.75240 | 36780 ft | 455 kts | 146° |
| 2026-05-05 14:49 | 50.76057 | 17.81252 | 36783 ft | 454 kts | 146° |
| 2026-05-05 14:49 | 50.71042 | 17.87208 | 36789 ft | 454 kts | 146° |
| 2026-05-05 14:50 | 50.65983 | 17.93189 | 36794 ft | 454 kts | 146° |
| 2026-05-05 14:50 | 50.61579 | 18.00359 | 36791 ft | 460 kts | 126° |
| 2026-05-05 14:51 | 50.58894 | 18.09498 | 36801 ft | 464 kts | 106° |
| 2026-05-05 14:51 | 50.58305 | 18.14510 | 36695 ft | 465 kts | 97° |
| 2026-05-05 14:51 | 50.58074 | 18.19657 | 35501 ft | 477 kts | 94° |
| 2026-05-05 14:52 | 50.57910 | 18.24907 | 34346 ft | 484 kts | 93° |
| 2026-05-05 14:52 | 50.57773 | 18.30223 | 33238 ft | 487 kts | 93° |
| 2026-05-05 14:52 | 50.57642 | 18.35559 | 32077 ft | 489 kts | 93° |
| 2026-05-05 14:52 | 50.57500 | 18.40918 | 30910 ft | 491 kts | 94° |
| 2026-05-05 14:53 | 50.57342 | 18.46230 | 29706 ft | 494 kts | 94° |
| 2026-05-05 14:53 | 50.57156 | 18.51707 | 28220 ft | 497 kts | 94° |
| 2026-05-05 14:53 | 50.56951 | 18.57148 | 26760 ft | 500 kts | 94° |
| 2026-05-05 14:53 | 50.56734 | 18.62552 | 25280 ft | 503 kts | 95° |
| 2026-05-05 14:54 | 50.56507 | 18.68045 | 24075 ft | 502 kts | 95° |
| 2026-05-05 14:54 | 50.56302 | 18.73463 | 23334 ft | 491 kts | 93° |
| 2026-05-05 14:54 | 50.56211 | 18.78779 | 22412 ft | 485 kts | 91° |
| 2026-05-05 14:54 | 50.56226 | 18.84065 | 21549 ft | 479 kts | 90° |
| 2026-05-05 14:55 | 50.56303 | 18.89266 | 20747 ft | 473 kts | 89° |
| 2026-05-05 14:55 | 50.56393 | 18.94412 | 19950 ft | 467 kts | 90° |
| 2026-05-05 14:55 | 50.56466 | 18.99476 | 19243 ft | 461 kts | 91° |
| 2026-05-05 14:55 | 50.56508 | 19.04502 | 18536 ft | 456 kts | 92° |
| 2026-05-05 14:56 | 50.56523 | 19.09456 | 17811 ft | 451 kts | 92° |
| 2026-05-05 14:56 | 50.56523 | 19.14363 | 17043 ft | 447 kts | 92° |
| 2026-05-05 14:56 | 50.56504 | 19.19233 | 16296 ft | 442 kts | 93° |
| 2026-05-05 14:56 | 50.56469 | 19.24049 | 15583 ft | 438 kts | 93° |
| 2026-05-05 14:57 | 50.56433 | 19.28801 | 15200 ft | 428 kts | 93° |
| 2026-05-05 14:57 | 50.56401 | 19.33384 | 15069 ft | 412 kts | 93° |
| 2026-05-05 14:57 | 50.56373 | 19.37816 | 14943 ft | 397 kts | 93° |
| 2026-05-05 14:57 | 50.56344 | 19.42087 | 14809 ft | 383 kts | 94° |
| 2026-05-05 14:58 | 50.56318 | 19.46186 | 14684 ft | 364 kts | 94° |
| 2026-05-05 14:58 | 50.56294 | 19.50044 | 14533 ft | 342 kts | 94° |
| 2026-05-05 14:58 | 50.56266 | 19.53721 | 14092 ft | 332 kts | 94° |
| 2026-05-05 14:58 | 50.56232 | 19.57326 | 13527 ft | 327 kts | 95° |
| 2026-05-05 14:59 | 50.55868 | 19.60778 | 13239 ft | 317 kts | 112° |
| 2026-05-05 14:59 | 50.54913 | 19.63841 | 13022 ft | 309 kts | 130° |
| 2026-05-05 14:59 | 50.53479 | 19.66278 | 12802 ft | 300 kts | 146° |
| 2026-05-05 14:59 | 50.51739 | 19.67943 | 12596 ft | 295 kts | 158° |
| 2026-05-05 15:00 | 50.49883 | 19.69390 | 12387 ft | 294 kts | 158° |
| 2026-05-05 15:00 | 50.48667 | 19.70343 | 12247 ft | 294 kts | 158° |
| 2026-05-05 15:00 | 50.46249 | 19.72240 | 11967 ft | 293 kts | 158° |
| 2026-05-05 15:00 | 50.44432 | 19.73666 | 11769 ft | 292 kts | 158° |
| 2026-05-05 15:01 | 50.42616 | 19.75090 | 11546 ft | 291 kts | 158° |
| 2026-05-05 15:01 | 50.40802 | 19.76507 | 11334 ft | 291 kts | 158° |
| 2026-05-05 15:01 | 50.38995 | 19.77916 | 11114 ft | 290 kts | 158° |
| 2026-05-05 15:01 | 50.37196 | 19.79315 | 10922 ft | 288 kts | 158° |
| 2026-05-05 15:02 | 50.35406 | 19.80709 | 10720 ft | 287 kts | 158° |
| 2026-05-05 15:02 | 50.33619 | 19.82103 | 10509 ft | 287 kts | 158° |
| 2026-05-05 15:02 | 50.31837 | 19.83492 | 10300 ft | 287 kts | 158° |
| 2026-05-05 15:02 | 50.30053 | 19.84884 | 10095 ft | 286 kts | 158° |
| 2026-05-05 15:03 | 50.28267 | 19.86279 | 9881 ft | 286 kts | 158° |
| 2026-05-05 15:03 | 50.26492 | 19.87666 | 9668 ft | 285 kts | 158° |
| 2026-05-05 15:03 | 50.24717 | 19.89050 | 9452 ft | 284 kts | 158° |
| 2026-05-05 15:03 | 50.22951 | 19.90426 | 9236 ft | 284 kts | 158° |
| 2026-05-05 15:04 | 50.21268 | 19.92039 | 9023 ft | 287 kts | 142° |
| 2026-05-05 15:04 | 50.20077 | 19.94518 | 8810 ft | 294 kts | 118° |
| 2026-05-05 15:04 | 50.19607 | 19.97645 | 8585 ft | 301 kts | 93° |
| 2026-05-05 15:04 | 50.19904 | 20.00859 | 8401 ft | 296 kts | 80° |
| 2026-05-05 15:05 | 50.20733 | 20.06924 | 8137 ft | 276 kts | 81° |
| 2026-05-05 15:05 | 50.21125 | 20.09823 | 7921 ft | 270 kts | 81° |
| 2026-05-05 15:05 | 50.21507 | 20.12666 | 7826 ft | 267 kts | 82° |
| 2026-05-05 15:06 | 50.21887 | 20.15506 | 7833 ft | 267 kts | 82° |
| 2026-05-05 15:06 | 50.22267 | 20.18338 | 7842 ft | 267 kts | 81° |
| 2026-05-05 15:06 | 50.22648 | 20.21160 | 7528 ft | 264 kts | 82° |
| 2026-05-05 15:06 | 50.23028 | 20.23956 | 7103 ft | 260 kts | 82° |
| 2026-05-05 15:07 | 50.23390 | 20.26735 | 6979 ft | 261 kts | 86° |
| 2026-05-05 15:07 | 50.23213 | 20.29462 | 6793 ft | 249 kts | 117° |
| 2026-05-05 15:07 | 50.22247 | 20.31596 | 6603 ft | 236 kts | 146° |
| 2026-05-05 15:07 | 50.20819 | 20.32828 | 6423 ft | 237 kts | 166° |
| 2026-05-05 15:08 | 50.19240 | 20.33255 | 6206 ft | 231 kts | 183° |
| 2026-05-05 15:08 | 50.17676 | 20.32873 | 6014 ft | 228 kts | 200° |
| 2026-05-05 15:08 | 50.16273 | 20.31734 | 5849 ft | 226 kts | 217° |
| 2026-05-05 15:08 | 50.15184 | 20.29981 | 5618 ft | 227 kts | 233° |
| 2026-05-05 15:09 | 50.14506 | 20.27722 | 5396 ft | 233 kts | 251° |
| 2026-05-05 15:09 | 50.14166 | 20.25316 | 5197 ft | 230 kts | 255° |
| 2026-05-05 15:09 | 50.13844 | 20.22877 | 5052 ft | 229 kts | 255° |
| 2026-05-05 15:09 | 50.13513 | 20.20408 | 4896 ft | 230 kts | 254° |
| 2026-05-05 15:10 | 50.13183 | 20.17962 | 4704 ft | 230 kts | 254° |
| 2026-05-05 15:10 | 50.12854 | 20.15532 | 4503 ft | 229 kts | 254° |
| 2026-05-05 15:10 | 50.12532 | 20.13149 | 4280 ft | 218 kts | 254° |
| 2026-05-05 15:10 | 50.12233 | 20.10930 | 4137 ft | 201 kts | 254° |
| 2026-05-05 15:11 | 50.12041 | 20.09521 | 4027 ft | 194 kts | 254° |
| 2026-05-05 15:11 | 50.11770 | 20.07534 | 3898 ft | 182 kts | 253° |
| 2026-05-05 15:11 | 50.11523 | 20.05704 | 3748 ft | 161 kts | 253° |
| 2026-05-05 15:11 | 50.11301 | 20.04080 | 3593 ft | 147 kts | 253° |
| 2026-05-05 15:12 | 50.11091 | 20.02556 | 3528 ft | 142 kts | 252° |
| 2026-05-05 15:12 | 50.10886 | 20.01066 | 3412 ft | 141 kts | 253° |
| 2026-05-05 15:12 | 50.10683 | 19.99585 | 3253 ft | 139 kts | 254° |
| 2026-05-05 15:12 | 50.10480 | 19.98109 | 3083 ft | 139 kts | 251° |
| 2026-05-05 15:13 | 50.10279 | 19.96644 | 2906 ft | 138 kts | 252° |
| 2026-05-05 15:13 | 50.10080 | 19.95188 | 2729 ft | 137 kts | 252° |
| 2026-05-05 15:13 | 50.09880 | 19.93740 | 2549 ft | 137 kts | 252° |
| 2026-05-05 15:13 | 50.09680 | 19.92287 | 2380 ft | 137 kts | 252° |
| 2026-05-05 15:14 | 50.09480 | 19.90834 | 2196 ft | 136 kts | 252° |
| 2026-05-05 15:14 | 50.09276 | 19.89391 | 1984 ft | 137 kts | 253° |
| 2026-05-05 15:14 | 50.09059 | 19.87948 | 1870 ft | 138 kts | 251° |
| 2026-05-05 15:14 | 50.08867 | 19.86487 | 1718 ft | 138 kts | 252° |
| 2026-05-05 15:15 | 50.08664 | 19.85034 | 1547 ft | 136 kts | 252° |
| 2026-05-05 15:15 | 50.08470 | 19.83598 | 1331 ft | 136 kts | 253° |
| 2026-05-05 15:15 | 50.08273 | 19.82143 | 1111 ft | 139 kts | 252° |
| 2026-05-05 15:15 | 50.08072 | 19.80661 | 929 ft | 139 kts | 256° |
| 2026-05-05 15:16 | 50.07874 | 19.79208 | 802 ft | 137 kts | 256° |
| 2026-05-05 15:16 | 50.07710 | 19.78021 | 788 ft | 73 kts | 258° |
| 2026-05-05 15:16 | 50.07664 | 19.77678 | 789 ft | 13 kts | 257° |
| 2026-05-05 15:16 | 50.07625 | 19.77397 | 790 ft | 36 kts | 259° |
| 2026-05-05 15:17 | 50.07573 | 19.77023 | 795 ft | 35 kts | 257° |
| 2026-05-05 15:17 | 50.07472 | 19.76853 | 794 ft | 17 kts | 161° |
| 2026-05-05 15:17 | 50.07390 | 19.76881 | 790 ft | 12 kts | 167° |
| 2026-05-05 15:17 | 50.07311 | 19.76938 | 790 ft | 14 kts | 109° |
| 2026-05-05 15:18 | 50.07324 | 19.77082 | 789 ft | 13 kts | 77° |
| 2026-05-05 15:18 | 50.07343 | 19.77209 | 789 ft | 11 kts | 78° |
| 2026-05-05 15:18 | 50.07357 | 19.77320 | 789 ft | 10 kts | 78° |
| 2026-05-05 15:18 | 50.07373 | 19.77435 | 789 ft | 13 kts | 78° |
| 2026-05-05 15:19 | 50.07396 | 19.77594 | 789 ft | 17 kts | 78° |
| 2026-05-05 15:19 | 50.07424 | 19.77801 | 789 ft | 22 kts | 78° |
| 2026-05-05 15:19 | 50.07458 | 19.78042 | 791 ft | 24 kts | 78° |
| 2026-05-05 15:19 | 50.07494 | 19.78302 | 789 ft | 25 kts | 76° |
| 2026-05-05 15:20 | 50.07532 | 19.78577 | 789 ft | 27 kts | 77° |
| 2026-05-05 15:20 | 50.07571 | 19.78849 | 790 ft | 25 kts | 78° |
| 2026-05-05 15:20 | 50.07608 | 19.79118 | 789 ft | 26 kts | 77° |
| 2026-05-05 15:20 | 50.07648 | 19.79404 | 789 ft | 28 kts | 78° |
| 2026-05-05 15:21 | 50.07690 | 19.79706 | 789 ft | 29 kts | 78° |
| 2026-05-05 15:21 | 50.07729 | 19.79986 | 789 ft | 23 kts | 78° |
| 2026-05-05 15:21 | 50.07762 | 19.80224 | 790 ft | 16 kts | 78° |
| 2026-05-05 15:21 | 50.07772 | 19.80296 | 790 ft | 0 kts | 78° |
| 2026-05-05 15:22 | 50.07773 | 19.80298 | 790 ft | 3 kts | 78° |
| 2026-05-05 15:22 | 50.07770 | 19.80390 | 790 ft | 8 kts | 159° |
| 2026-05-05 15:22 | 50.07671 | 19.80395 | 789 ft | 16 kts | 166° |
| 2026-05-05 15:23 | 50.07585 | 19.80424 | 789 ft | 12 kts | 172° |
| 2026-05-05 15:23 | 50.07501 | 19.80392 | 789 ft | 13 kts | 197° |
| 2026-05-05 15:23 | 50.07437 | 19.80290 | 789 ft | 15 kts | 256° |
| 2026-05-05 15:23 | 50.07417 | 19.80137 | 789 ft | 15 kts | 257° |
| 2026-05-05 15:24 | 50.07388 | 19.79993 | 789 ft | 11 kts | 223° |
| 2026-05-05 15:24 | 50.07349 | 19.79993 | 789 ft | 2 kts | 167° |
| 2026-05-05 15:24 | 50.07338 | 19.79997 | 789 ft | 2 kts | 167° |
| 2026-05-05 15:24 | 50.07307 | 19.80008 | 789 ft | 3 kts | 167° |
| 2026-05-05 15:25 | 50.07303 | 19.80009 | 789 ft | 0 kts | 167° |